sensor_id;sensor_type;location;lat;lon;timestamp;P1;durP1;ratioP1;P2;durP2;ratioP2
7539;SDS011;3811;49.006;12.076;2023-04-16T00:01:08;7.30;;;6.20;;
7539;SDS011;3811;49.006;12.076;2023-04-16T00:03:35;8.03;;;6.67;;
7539;SDS011;3811;49.006;12.076;2023-04-16T00:06:02;6.53;;;5.73;;
7539;SDS011;3811;49.006;12.076;2023-04-16T00:08:30;8.53;;;6.37;;
7539;SDS011;3811;49.006;12.076;2023-04-16T00:10:57;7.03;;;6.23;;
7539;SDS011;3811;49.006;12.076;2023-04-16T00:13:25;7.97;;;7.13;;
7539;SDS011;3811;49.006;12.076;2023-04-16T00:15:53;6.83;;;5.93;;
7539;SDS011;3811;49.006;12.076;2023-04-16T00:18:20;7.93;;;6.20;;
7539;SDS011;3811;49.006;12.076;2023-04-16T00:20:47;7.93;;;5.93;;
7539;SDS011;3811;49.006;12.076;2023-04-16T00:23:14;7.83;;;6.00;;
7539;SDS011;3811;49.006;12.076;2023-04-16T00:25:42;8.40;;;6.70;;
7539;SDS011;3811;49.006;12.076;2023-04-16T00:28:09;7.23;;;6.13;;
7539;SDS011;3811;49.006;12.076;2023-04-16T00:30:37;7.30;;;6.60;;
7539;SDS011;3811;49.006;12.076;2023-04-16T00:33:04;9.03;;;6.03;;
7539;SDS011;3811;49.006;12.076;2023-04-16T00:35:32;9.50;;;6.50;;
7539;SDS011;3811;49.006;12.076;2023-04-16T00:37:59;9.27;;;6.33;;
7539;SDS011;3811;49.006;12.076;2023-04-16T00:40:26;8.63;;;6.77;;
7539;SDS011;3811;49.006;12.076;2023-04-16T00:42:53;10.43;;;7.23;;
7539;SDS011;3811;49.006;12.076;2023-04-16T00:45:21;6.70;;;6.00;;
7539;SDS011;3811;49.006;12.076;2023-04-16T00:47:50;6.57;;;5.90;;
7539;SDS011;3811;49.006;12.076;2023-04-16T00:50:17;7.97;;;6.20;;
7539;SDS011;3811;49.006;12.076;2023-04-16T00:52:46;8.33;;;6.30;;
7539;SDS011;3811;49.006;12.076;2023-04-16T00:55:13;7.50;;;5.70;;
7539;SDS011;3811;49.006;12.076;2023-04-16T00:57:42;13.00;;;5.93;;
7539;SDS011;3811;49.006;12.076;2023-04-16T01:00:10;7.37;;;6.07;;
7539;SDS011;3811;49.006;12.076;2023-04-16T01:02:38;7.93;;;6.43;;
7539;SDS011;3811;49.006;12.076;2023-04-16T01:05:07;7.13;;;5.60;;
7539;SDS011;3811;49.006;12.076;2023-04-16T01:07:34;7.47;;;5.80;;
7539;SDS011;3811;49.006;12.076;2023-04-16T01:10:02;8.90;;;5.77;;
7539;SDS011;3811;49.006;12.076;2023-04-16T01:12:29;7.67;;;5.67;;
7539;SDS011;3811;49.006;12.076;2023-04-16T01:14:56;6.60;;;5.80;;
7539;SDS011;3811;49.006;12.076;2023-04-16T01:17:24;6.07;;;5.47;;
7539;SDS011;3811;49.006;12.076;2023-04-16T01:19:51;6.33;;;5.67;;
7539;SDS011;3811;49.006;12.076;2023-04-16T01:22:20;7.37;;;5.93;;
7539;SDS011;3811;49.006;12.076;2023-04-16T01:24:47;8.10;;;5.93;;
7539;SDS011;3811;49.006;12.076;2023-04-16T01:27:15;7.63;;;5.70;;
7539;SDS011;3811;49.006;12.076;2023-04-16T01:29:42;5.83;;;5.20;;
7539;SDS011;3811;49.006;12.076;2023-04-16T01:32:10;8.23;;;4.93;;
7539;SDS011;3811;49.006;12.076;2023-04-16T01:34:39;5.93;;;4.97;;
7539;SDS011;3811;49.006;12.076;2023-04-16T01:37:08;5.80;;;4.93;;
7539;SDS011;3811;49.006;12.076;2023-04-16T01:39:37;6.20;;;5.40;;
7539;SDS011;3811;49.006;12.076;2023-04-16T01:42:06;6.67;;;5.27;;
7539;SDS011;3811;49.006;12.076;2023-04-16T01:44:33;5.30;;;4.80;;
7539;SDS011;3811;49.006;12.076;2023-04-16T01:47:01;5.60;;;4.70;;
7539;SDS011;3811;49.006;12.076;2023-04-16T01:49:28;6.70;;;4.87;;
7539;SDS011;3811;49.006;12.076;2023-04-16T01:51:55;6.97;;;4.97;;
7539;SDS011;3811;49.006;12.076;2023-04-16T01:54:23;5.83;;;4.63;;
7539;SDS011;3811;49.006;12.076;2023-04-16T01:56:52;5.20;;;4.70;;
7539;SDS011;3811;49.006;12.076;2023-04-16T01:59:19;4.70;;;4.27;;
7539;SDS011;3811;49.006;12.076;2023-04-16T02:01:47;4.83;;;4.40;;
7539;SDS011;3811;49.006;12.076;2023-04-16T02:04:15;5.30;;;4.27;;
7539;SDS011;3811;49.006;12.076;2023-04-16T02:06:42;4.37;;;3.93;;
7539;SDS011;3811;49.006;12.076;2023-04-16T02:09:11;4.87;;;4.17;;
7539;SDS011;3811;49.006;12.076;2023-04-16T02:11:38;3.93;;;3.53;;
7539;SDS011;3811;49.006;12.076;2023-04-16T02:14:06;4.20;;;3.60;;
7539;SDS011;3811;49.006;12.076;2023-04-16T02:16:34;4.10;;;3.50;;
7539;SDS011;3811;49.006;12.076;2023-04-16T02:19:15;4.60;;;3.77;;
7539;SDS011;3811;49.006;12.076;2023-04-16T02:21:42;3.20;;;3.00;;
7539;SDS011;3811;49.006;12.076;2023-04-16T02:24:09;3.87;;;3.50;;
7539;SDS011;3811;49.006;12.076;2023-04-16T02:26:36;3.80;;;3.40;;
7539;SDS011;3811;49.006;12.076;2023-04-16T02:29:11;4.40;;;3.50;;
7539;SDS011;3811;49.006;12.076;2023-04-16T02:31:42;4.07;;;3.67;;
7539;SDS011;3811;49.006;12.076;2023-04-16T02:34:11;4.10;;;3.17;;
7539;SDS011;3811;49.006;12.076;2023-04-16T02:36:39;3.50;;;3.20;;
7539;SDS011;3811;49.006;12.076;2023-04-16T02:39:07;3.53;;;3.23;;
7539;SDS011;3811;49.006;12.076;2023-04-16T02:41:35;4.17;;;3.40;;
7539;SDS011;3811;49.006;12.076;2023-04-16T02:44:02;3.77;;;3.47;;
7539;SDS011;3811;49.006;12.076;2023-04-16T02:46:31;5.00;;;3.60;;
7539;SDS011;3811;49.006;12.076;2023-04-16T02:48:58;4.93;;;3.57;;
7539;SDS011;3811;49.006;12.076;2023-04-16T02:51:25;3.67;;;3.37;;
7539;SDS011;3811;49.006;12.076;2023-04-16T02:53:53;3.43;;;3.13;;
7539;SDS011;3811;49.006;12.076;2023-04-16T02:56:20;3.27;;;2.97;;
7539;SDS011;3811;49.006;12.076;2023-04-16T02:58:48;3.57;;;3.27;;
7539;SDS011;3811;49.006;12.076;2023-04-16T03:01:15;3.90;;;3.50;;
7539;SDS011;3811;49.006;12.076;2023-04-16T03:03:43;3.40;;;3.10;;
7539;SDS011;3811;49.006;12.076;2023-04-16T03:06:11;3.23;;;2.97;;
7539;SDS011;3811;49.006;12.076;2023-04-16T03:08:38;2.77;;;2.57;;
7539;SDS011;3811;49.006;12.076;2023-04-16T03:11:05;5.37;;;3.13;;
7539;SDS011;3811;49.006;12.076;2023-04-16T03:13:33;2.90;;;2.70;;
7539;SDS011;3811;49.006;12.076;2023-04-16T03:16:00;3.03;;;2.73;;
7539;SDS011;3811;49.006;12.076;2023-04-16T03:18:27;4.93;;;3.70;;
7539;SDS011;3811;49.006;12.076;2023-04-16T03:20:56;2.97;;;2.70;;
7539;SDS011;3811;49.006;12.076;2023-04-16T03:23:23;3.20;;;2.90;;
7539;SDS011;3811;49.006;12.076;2023-04-16T03:25:50;3.10;;;2.90;;
7539;SDS011;3811;49.006;12.076;2023-04-16T03:28:18;3.20;;;2.90;;
7539;SDS011;3811;49.006;12.076;2023-04-16T03:30:48;3.10;;;2.90;;
7539;SDS011;3811;49.006;12.076;2023-04-16T03:33:16;3.40;;;3.10;;
7539;SDS011;3811;49.006;12.076;2023-04-16T03:35:43;4.70;;;3.07;;
7539;SDS011;3811;49.006;12.076;2023-04-16T03:38:13;3.30;;;3.00;;
7539;SDS011;3811;49.006;12.076;2023-04-16T03:40:40;3.17;;;2.90;;
7539;SDS011;3811;49.006;12.076;2023-04-16T03:43:08;3.53;;;3.10;;
7539;SDS011;3811;49.006;12.076;2023-04-16T03:45:36;3.30;;;3.00;;
7539;SDS011;3811;49.006;12.076;2023-04-16T03:48:03;3.90;;;3.20;;
7539;SDS011;3811;49.006;12.076;2023-04-16T03:50:30;3.43;;;3.13;;
7539;SDS011;3811;49.006;12.076;2023-04-16T03:52:58;5.20;;;3.47;;
7539;SDS011;3811;49.006;12.076;2023-04-16T03:55:26;3.47;;;3.17;;
7539;SDS011;3811;49.006;12.076;2023-04-16T03:57:54;3.50;;;3.20;;
7539;SDS011;3811;49.006;12.076;2023-04-16T04:00:21;3.50;;;3.10;;
7539;SDS011;3811;49.006;12.076;2023-04-16T04:02:58;3.30;;;2.90;;
7539;SDS011;3811;49.006;12.076;2023-04-16T04:05:25;3.43;;;3.13;;
7539;SDS011;3811;49.006;12.076;2023-04-16T04:07:53;4.73;;;3.33;;
7539;SDS011;3811;49.006;12.076;2023-04-16T04:10:21;3.53;;;3.23;;
7539;SDS011;3811;49.006;12.076;2023-04-16T04:12:50;3.40;;;3.10;;
7539;SDS011;3811;49.006;12.076;2023-04-16T04:15:17;3.47;;;3.17;;
7539;SDS011;3811;49.006;12.076;2023-04-16T04:17:45;3.50;;;3.20;;
7539;SDS011;3811;49.006;12.076;2023-04-16T04:20:13;2.87;;;2.67;;
7539;SDS011;3811;49.006;12.076;2023-04-16T04:22:43;4.33;;;2.93;;
7539;SDS011;3811;49.006;12.076;2023-04-16T04:25:11;3.63;;;3.33;;
7539;SDS011;3811;49.006;12.076;2023-04-16T04:27:38;3.57;;;3.23;;
7539;SDS011;3811;49.006;12.076;2023-04-16T04:30:08;3.33;;;3.03;;
7539;SDS011;3811;49.006;12.076;2023-04-16T04:32:37;3.77;;;3.43;;
7539;SDS011;3811;49.006;12.076;2023-04-16T04:35:05;3.07;;;2.63;;
7539;SDS011;3811;49.006;12.076;2023-04-16T04:37:32;3.67;;;2.60;;
7539;SDS011;3811;49.006;12.076;2023-04-16T04:40:08;2.90;;;2.70;;
7539;SDS011;3811;49.006;12.076;2023-04-16T04:42:35;2.97;;;2.67;;
7539;SDS011;3811;49.006;12.076;2023-04-16T04:45:03;4.20;;;2.70;;
7539;SDS011;3811;49.006;12.076;2023-04-16T04:47:33;3.57;;;2.77;;
7539;SDS011;3811;49.006;12.076;2023-04-16T04:50:01;3.10;;;2.80;;
7539;SDS011;3811;49.006;12.076;2023-04-16T04:52:30;3.60;;;3.30;;
7539;SDS011;3811;49.006;12.076;2023-04-16T04:54:59;3.60;;;3.30;;
7539;SDS011;3811;49.006;12.076;2023-04-16T04:57:28;3.33;;;2.80;;
7539;SDS011;3811;49.006;12.076;2023-04-16T04:59:56;3.10;;;2.80;;
7539;SDS011;3811;49.006;12.076;2023-04-16T05:02:23;3.17;;;2.87;;
7539;SDS011;3811;49.006;12.076;2023-04-16T05:04:51;3.20;;;2.97;;
7539;SDS011;3811;49.006;12.076;2023-04-16T05:07:19;3.20;;;2.83;;
7539;SDS011;3811;49.006;12.076;2023-04-16T05:09:47;2.80;;;2.60;;
7539;SDS011;3811;49.006;12.076;2023-04-16T05:12:14;3.87;;;2.90;;
7539;SDS011;3811;49.006;12.076;2023-04-16T05:14:41;2.60;;;2.40;;
7539;SDS011;3811;49.006;12.076;2023-04-16T05:17:08;2.70;;;2.50;;
7539;SDS011;3811;49.006;12.076;2023-04-16T05:19:35;2.93;;;2.43;;
7539;SDS011;3811;49.006;12.076;2023-04-16T05:22:04;2.57;;;2.37;;
7539;SDS011;3811;49.006;12.076;2023-04-16T05:24:31;2.43;;;2.23;;
7539;SDS011;3811;49.006;12.076;2023-04-16T05:26:58;2.73;;;2.53;;
7539;SDS011;3811;49.006;12.076;2023-04-16T05:29:26;2.60;;;2.40;;
7539;SDS011;3811;49.006;12.076;2023-04-16T05:31:52;3.90;;;2.53;;
7539;SDS011;3811;49.006;12.076;2023-04-16T05:34:20;2.60;;;2.40;;
7539;SDS011;3811;49.006;12.076;2023-04-16T05:36:47;3.07;;;2.60;;
7539;SDS011;3811;49.006;12.076;2023-04-16T05:41:44;2.57;;;2.37;;
7539;SDS011;3811;49.006;12.076;2023-04-16T05:44:11;2.70;;;2.50;;
7539;SDS011;3811;49.006;12.076;2023-04-16T05:46:39;2.43;;;2.30;;
7539;SDS011;3811;49.006;12.076;2023-04-16T05:49:06;2.43;;;2.30;;
7539;SDS011;3811;49.006;12.076;2023-04-16T05:51:34;2.33;;;2.13;;
7539;SDS011;3811;49.006;12.076;2023-04-16T05:54:01;2.80;;;2.60;;
7539;SDS011;3811;49.006;12.076;2023-04-16T05:56:30;2.63;;;2.43;;
7539;SDS011;3811;49.006;12.076;2023-04-16T05:58:57;2.30;;;2.20;;
7539;SDS011;3811;49.006;12.076;2023-04-16T06:01:24;2.60;;;2.30;;
7539;SDS011;3811;49.006;12.076;2023-04-16T06:03:51;2.67;;;2.47;;
7539;SDS011;3811;49.006;12.076;2023-04-16T06:06:18;2.40;;;2.20;;
7539;SDS011;3811;49.006;12.076;2023-04-16T06:08:45;2.87;;;2.37;;
7539;SDS011;3811;49.006;12.076;2023-04-16T06:11:12;3.00;;;2.70;;
7539;SDS011;3811;49.006;12.076;2023-04-16T06:13:41;3.23;;;2.43;;
7539;SDS011;3811;49.006;12.076;2023-04-16T06:16:08;3.00;;;2.70;;
7539;SDS011;3811;49.006;12.076;2023-04-16T06:18:35;2.50;;;2.30;;
7539;SDS011;3811;49.006;12.076;2023-04-16T06:21:02;2.73;;;2.53;;
7539;SDS011;3811;49.006;12.076;2023-04-16T06:23:29;2.67;;;2.47;;
7539;SDS011;3811;49.006;12.076;2023-04-16T06:25:57;2.30;;;2.20;;
7539;SDS011;3811;49.006;12.076;2023-04-16T06:28:24;2.90;;;2.70;;
7539;SDS011;3811;49.006;12.076;2023-04-16T06:30:52;2.57;;;2.37;;
7539;SDS011;3811;49.006;12.076;2023-04-16T06:33:20;2.67;;;2.47;;
7539;SDS011;3811;49.006;12.076;2023-04-16T06:35:47;2.53;;;2.33;;
7539;SDS011;3811;49.006;12.076;2023-04-16T06:38:14;2.70;;;2.50;;
7539;SDS011;3811;49.006;12.076;2023-04-16T06:40:42;2.87;;;2.67;;
7539;SDS011;3811;49.006;12.076;2023-04-16T06:43:09;2.70;;;2.50;;
7539;SDS011;3811;49.006;12.076;2023-04-16T06:45:37;3.60;;;2.57;;
7539;SDS011;3811;49.006;12.076;2023-04-16T06:48:07;2.77;;;2.57;;
7539;SDS011;3811;49.006;12.076;2023-04-16T06:50:34;2.33;;;2.23;;
7539;SDS011;3811;49.006;12.076;2023-04-16T06:53:01;2.70;;;2.50;;
7539;SDS011;3811;49.006;12.076;2023-04-16T06:55:29;2.70;;;2.50;;
7539;SDS011;3811;49.006;12.076;2023-04-16T06:57:56;2.73;;;2.53;;
7539;SDS011;3811;49.006;12.076;2023-04-16T07:00:23;2.90;;;2.70;;
7539;SDS011;3811;49.006;12.076;2023-04-16T07:02:50;2.67;;;2.47;;
7539;SDS011;3811;49.006;12.076;2023-04-16T07:05:19;2.27;;;2.07;;
7539;SDS011;3811;49.006;12.076;2023-04-16T07:07:46;2.20;;;2.10;;
7539;SDS011;3811;49.006;12.076;2023-04-16T07:10:14;2.20;;;2.10;;
7539;SDS011;3811;49.006;12.076;2023-04-16T07:12:43;2.37;;;2.20;;
7539;SDS011;3811;49.006;12.076;2023-04-16T07:15:10;2.23;;;2.13;;
7539;SDS011;3811;49.006;12.076;2023-04-16T07:17:37;2.20;;;2.10;;
7539;SDS011;3811;49.006;12.076;2023-04-16T07:20:05;2.30;;;2.00;;
7539;SDS011;3811;49.006;12.076;2023-04-16T07:22:35;1.80;;;1.70;;
7539;SDS011;3811;49.006;12.076;2023-04-16T07:25:02;1.83;;;1.73;;
7539;SDS011;3811;49.006;12.076;2023-04-16T07:27:30;2.70;;;2.00;;
7539;SDS011;3811;49.006;12.076;2023-04-16T07:29:57;2.80;;;2.17;;
7539;SDS011;3811;49.006;12.076;2023-04-16T07:32:24;2.20;;;2.10;;
7539;SDS011;3811;49.006;12.076;2023-04-16T07:34:51;2.23;;;2.13;;
7539;SDS011;3811;49.006;12.076;2023-04-16T07:37:19;2.17;;;2.07;;
7539;SDS011;3811;49.006;12.076;2023-04-16T07:39:48;2.30;;;2.20;;
7539;SDS011;3811;49.006;12.076;2023-04-16T07:42:15;2.80;;;2.50;;
7539;SDS011;3811;49.006;12.076;2023-04-16T07:44:43;2.00;;;1.90;;
7539;SDS011;3811;49.006;12.076;2023-04-16T07:47:10;2.23;;;2.10;;
7539;SDS011;3811;49.006;12.076;2023-04-16T07:49:37;2.10;;;2.00;;
7539;SDS011;3811;49.006;12.076;2023-04-16T07:52:05;1.97;;;1.87;;
7539;SDS011;3811;49.006;12.076;2023-04-16T07:54:32;2.10;;;2.00;;
7539;SDS011;3811;49.006;12.076;2023-04-16T07:57:01;2.07;;;1.93;;
7539;SDS011;3811;49.006;12.076;2023-04-16T07:59:28;2.43;;;2.23;;
7539;SDS011;3811;49.006;12.076;2023-04-16T08:01:55;2.17;;;1.97;;
7539;SDS011;3811;49.006;12.076;2023-04-16T08:04:22;2.03;;;1.93;;
7539;SDS011;3811;49.006;12.076;2023-04-16T08:06:50;2.13;;;2.00;;
7539;SDS011;3811;49.006;12.076;2023-04-16T08:09:17;2.30;;;2.20;;
7539;SDS011;3811;49.006;12.076;2023-04-16T08:11:45;2.33;;;2.20;;
7539;SDS011;3811;49.006;12.076;2023-04-16T08:14:15;3.23;;;1.77;;
7539;SDS011;3811;49.006;12.076;2023-04-16T08:16:42;1.90;;;1.80;;
7539;SDS011;3811;49.006;12.076;2023-04-16T08:19:09;1.90;;;1.80;;
7539;SDS011;3811;49.006;12.076;2023-04-16T08:21:37;2.77;;;2.57;;
7539;SDS011;3811;49.006;12.076;2023-04-16T08:24:04;2.10;;;2.00;;
7539;SDS011;3811;49.006;12.076;2023-04-16T08:26:31;2.00;;;1.90;;
7539;SDS011;3811;49.006;12.076;2023-04-16T08:28:58;3.13;;;2.13;;
7539;SDS011;3811;49.006;12.076;2023-04-16T08:31:27;2.30;;;2.20;;
7539;SDS011;3811;49.006;12.076;2023-04-16T08:33:54;1.87;;;1.77;;
7539;SDS011;3811;49.006;12.076;2023-04-16T08:36:21;2.30;;;2.20;;
7539;SDS011;3811;49.006;12.076;2023-04-16T08:38:49;2.17;;;2.07;;
7539;SDS011;3811;49.006;12.076;2023-04-16T08:41:16;2.50;;;2.30;;
7539;SDS011;3811;49.006;12.076;2023-04-16T08:43:44;3.40;;;3.10;;
7539;SDS011;3811;49.006;12.076;2023-04-16T08:46:16;3.70;;;3.03;;
7539;SDS011;3811;49.006;12.076;2023-04-16T08:48:45;1.90;;;1.80;;
7539;SDS011;3811;49.006;12.076;2023-04-16T08:51:17;1.87;;;1.77;;
7539;SDS011;3811;49.006;12.076;2023-04-16T08:53:47;1.70;;;1.60;;
7539;SDS011;3811;49.006;12.076;2023-04-16T08:56:14;1.90;;;1.80;;
7539;SDS011;3811;49.006;12.076;2023-04-16T08:58:45;1.93;;;1.83;;
7539;SDS011;3811;49.006;12.076;2023-04-16T09:01:14;1.70;;;1.60;;
7539;SDS011;3811;49.006;12.076;2023-04-16T09:03:42;1.70;;;1.60;;
7539;SDS011;3811;49.006;12.076;2023-04-16T09:06:13;2.00;;;1.80;;
7539;SDS011;3811;49.006;12.076;2023-04-16T09:08:41;1.87;;;1.70;;
7539;SDS011;3811;49.006;12.076;2023-04-16T09:11:09;1.80;;;1.47;;
7539;SDS011;3811;49.006;12.076;2023-04-16T09:13:37;1.63;;;1.53;;
7539;SDS011;3811;49.006;12.076;2023-04-16T09:16:04;1.60;;;1.50;;
7539;SDS011;3811;49.006;12.076;2023-04-16T09:18:33;1.40;;;1.30;;
7539;SDS011;3811;49.006;12.076;2023-04-16T09:21:00;1.30;;;1.20;;
7539;SDS011;3811;49.006;12.076;2023-04-16T09:23:30;1.20;;;1.20;;
7539;SDS011;3811;49.006;12.076;2023-04-16T09:25:58;1.50;;;1.40;;
7539;SDS011;3811;49.006;12.076;2023-04-16T09:28:37;0.97;;;0.93;;
7539;SDS011;3811;49.006;12.076;2023-04-16T09:31:09;1.40;;;1.03;;
7539;SDS011;3811;49.006;12.076;2023-04-16T09:33:36;1.00;;;1.00;;
7539;SDS011;3811;49.006;12.076;2023-04-16T09:36:04;2.80;;;1.20;;
7539;SDS011;3811;49.006;12.076;2023-04-16T09:38:45;1.17;;;1.17;;
7539;SDS011;3811;49.006;12.076;2023-04-16T09:41:13;1.43;;;1.33;;
7539;SDS011;3811;49.006;12.076;2023-04-16T09:43:48;1.10;;;1.10;;
7539;SDS011;3811;49.006;12.076;2023-04-16T09:46:20;1.10;;;1.10;;
7539;SDS011;3811;49.006;12.076;2023-04-16T09:48:47;1.33;;;1.33;;
7539;SDS011;3811;49.006;12.076;2023-04-16T09:51:14;1.27;;;1.17;;
7539;SDS011;3811;49.006;12.076;2023-04-16T09:53:41;1.37;;;1.33;;
7539;SDS011;3811;49.006;12.076;2023-04-16T09:56:10;1.73;;;1.50;;
7539;SDS011;3811;49.006;12.076;2023-04-16T09:58:44;1.70;;;1.60;;
7539;SDS011;3811;49.006;12.076;2023-04-16T10:01:11;1.73;;;1.63;;
7539;SDS011;3811;49.006;12.076;2023-04-16T10:03:39;2.20;;;1.40;;
7539;SDS011;3811;49.006;12.076;2023-04-16T10:06:06;1.40;;;1.30;;
7539;SDS011;3811;49.006;12.076;2023-04-16T10:08:35;1.93;;;1.60;;
7539;SDS011;3811;49.006;12.076;2023-04-16T10:11:02;1.80;;;1.70;;
7539;SDS011;3811;49.006;12.076;2023-04-16T10:13:31;1.73;;;1.63;;
7539;SDS011;3811;49.006;12.076;2023-04-16T10:15:58;1.60;;;1.50;;
7539;SDS011;3811;49.006;12.076;2023-04-16T10:18:25;1.63;;;1.53;;
7539;SDS011;3811;49.006;12.076;2023-04-16T10:20:53;1.80;;;1.70;;
7539;SDS011;3811;49.006;12.076;2023-04-16T10:23:21;2.47;;;1.80;;
7539;SDS011;3811;49.006;12.076;2023-04-16T10:25:48;1.80;;;1.70;;
7539;SDS011;3811;49.006;12.076;2023-04-16T10:28:16;2.07;;;1.90;;
7539;SDS011;3811;49.006;12.076;2023-04-16T10:30:46;1.80;;;1.70;;
7539;SDS011;3811;49.006;12.076;2023-04-16T10:33:20;1.73;;;1.63;;
7539;SDS011;3811;49.006;12.076;2023-04-16T10:35:48;2.10;;;1.90;;
7539;SDS011;3811;49.006;12.076;2023-04-16T10:38:22;1.53;;;1.43;;
7539;SDS011;3811;49.006;12.076;2023-04-16T10:40:57;2.00;;;1.90;;
7539;SDS011;3811;49.006;12.076;2023-04-16T10:43:27;1.90;;;1.70;;
7539;SDS011;3811;49.006;12.076;2023-04-16T10:45:56;1.37;;;1.30;;
7539;SDS011;3811;49.006;12.076;2023-04-16T10:48:23;1.50;;;1.40;;
7539;SDS011;3811;49.006;12.076;2023-04-16T10:50:54;1.57;;;1.47;;
7539;SDS011;3811;49.006;12.076;2023-04-16T10:53:23;1.50;;;1.47;;
7539;SDS011;3811;49.006;12.076;2023-04-16T10:55:58;1.80;;;1.70;;
7539;SDS011;3811;49.006;12.076;2023-04-16T10:58:38;1.80;;;1.70;;
7539;SDS011;3811;49.006;12.076;2023-04-16T11:01:07;2.00;;;1.90;;
7539;SDS011;3811;49.006;12.076;2023-04-16T11:03:39;1.43;;;1.37;;
7539;SDS011;3811;49.006;12.076;2023-04-16T11:06:11;2.07;;;1.83;;
7539;SDS011;3811;49.006;12.076;2023-04-16T11:08:41;1.80;;;1.70;;
7539;SDS011;3811;49.006;12.076;2023-04-16T11:11:10;2.17;;;1.83;;
7539;SDS011;3811;49.006;12.076;2023-04-16T11:13:37;1.80;;;1.70;;
7539;SDS011;3811;49.006;12.076;2023-04-16T11:16:10;1.33;;;1.33;;
7539;SDS011;3811;49.006;12.076;2023-04-16T11:18:39;1.80;;;1.70;;
7539;SDS011;3811;49.006;12.076;2023-04-16T11:21:07;1.90;;;1.67;;
7539;SDS011;3811;49.006;12.076;2023-04-16T11:23:44;1.83;;;1.73;;
7539;SDS011;3811;49.006;12.076;2023-04-16T11:26:19;1.93;;;1.83;;
7539;SDS011;3811;49.006;12.076;2023-04-16T11:28:48;1.90;;;1.80;;
7539;SDS011;3811;49.006;12.076;2023-04-16T11:31:17;1.43;;;1.40;;
7539;SDS011;3811;49.006;12.076;2023-04-16T11:33:44;2.27;;;2.10;;
7539;SDS011;3811;49.006;12.076;2023-04-16T11:36:11;2.00;;;1.90;;
7539;SDS011;3811;49.006;12.076;2023-04-16T11:38:39;1.93;;;1.83;;
7539;SDS011;3811;49.006;12.076;2023-04-16T11:41:09;1.53;;;1.47;;
7539;SDS011;3811;49.006;12.076;2023-04-16T11:43:40;1.70;;;1.60;;
7539;SDS011;3811;49.006;12.076;2023-04-16T11:46:08;1.73;;;1.63;;
7539;SDS011;3811;49.006;12.076;2023-04-16T11:48:46;2.10;;;1.70;;
7539;SDS011;3811;49.006;12.076;2023-04-16T11:51:14;2.07;;;1.97;;
7539;SDS011;3811;49.006;12.076;2023-04-16T11:53:48;1.80;;;1.70;;
7539;SDS011;3811;49.006;12.076;2023-04-16T11:56:23;1.60;;;1.50;;
7539;SDS011;3811;49.006;12.076;2023-04-16T11:59:05;1.60;;;1.50;;
7539;SDS011;3811;49.006;12.076;2023-04-16T12:01:33;1.60;;;1.50;;
7539;SDS011;3811;49.006;12.076;2023-04-16T12:04:02;1.70;;;1.60;;
7539;SDS011;3811;49.006;12.076;2023-04-16T12:06:33;1.80;;;1.70;;
7539;SDS011;3811;49.006;12.076;2023-04-16T12:09:20;1.47;;;1.37;;
7539;SDS011;3811;49.006;12.076;2023-04-16T12:11:52;1.63;;;1.53;;
7539;SDS011;3811;49.006;12.076;2023-04-16T12:14:19;1.53;;;1.43;;
7539;SDS011;3811;49.006;12.076;2023-04-16T12:16:47;1.50;;;1.40;;
7539;SDS011;3811;49.006;12.076;2023-04-16T12:19:17;1.77;;;1.67;;
7539;SDS011;3811;49.006;12.076;2023-04-16T12:21:46;1.60;;;1.50;;
7539;SDS011;3811;49.006;12.076;2023-04-16T12:24:14;1.80;;;1.70;;
7539;SDS011;3811;49.006;12.076;2023-04-16T12:26:45;2.27;;;1.70;;
7539;SDS011;3811;49.006;12.076;2023-04-16T12:29:18;1.70;;;1.60;;
7539;SDS011;3811;49.006;12.076;2023-04-16T12:31:46;1.80;;;1.70;;
7539;SDS011;3811;49.006;12.076;2023-04-16T12:34:13;1.80;;;1.70;;
7539;SDS011;3811;49.006;12.076;2023-04-16T12:36:43;2.17;;;2.07;;
7539;SDS011;3811;49.006;12.076;2023-04-16T12:39:11;1.63;;;1.53;;
7539;SDS011;3811;49.006;12.076;2023-04-16T12:41:39;2.07;;;1.50;;
7539;SDS011;3811;49.006;12.076;2023-04-16T12:44:08;1.60;;;1.50;;
7539;SDS011;3811;49.006;12.076;2023-04-16T12:46:37;1.60;;;1.57;;
7539;SDS011;3811;49.006;12.076;2023-04-16T12:49:05;2.47;;;1.67;;
7539;SDS011;3811;49.006;12.076;2023-04-16T12:51:33;1.80;;;1.70;;
7539;SDS011;3811;49.006;12.076;2023-04-16T12:54:02;1.90;;;1.80;;
7539;SDS011;3811;49.006;12.076;2023-04-16T12:56:30;1.87;;;1.67;;
7539;SDS011;3811;49.006;12.076;2023-04-16T12:58:57;2.20;;;2.10;;
7539;SDS011;3811;49.006;12.076;2023-04-16T13:01:24;2.60;;;2.40;;
7539;SDS011;3811;49.006;12.076;2023-04-16T13:03:51;2.60;;;2.27;;
7539;SDS011;3811;49.006;12.076;2023-04-16T13:06:19;2.50;;;2.27;;
7539;SDS011;3811;49.006;12.076;2023-04-16T13:08:46;2.40;;;2.20;;
7539;SDS011;3811;49.006;12.076;2023-04-16T13:11:14;2.17;;;2.07;;
7539;SDS011;3811;49.006;12.076;2023-04-16T13:13:43;2.30;;;2.20;;
7539;SDS011;3811;49.006;12.076;2023-04-16T13:16:10;2.70;;;2.50;;
7539;SDS011;3811;49.006;12.076;2023-04-16T13:18:38;3.40;;;3.20;;
7539;SDS011;3811;49.006;12.076;2023-04-16T13:21:05;2.17;;;2.07;;
7539;SDS011;3811;49.006;12.076;2023-04-16T13:23:33;2.40;;;2.20;;
7539;SDS011;3811;49.006;12.076;2023-04-16T13:26:00;2.80;;;2.47;;
7539;SDS011;3811;49.006;12.076;2023-04-16T13:28:28;3.13;;;2.83;;
7539;SDS011;3811;49.006;12.076;2023-04-16T13:30:56;2.93;;;2.63;;
7539;SDS011;3811;49.006;12.076;2023-04-16T13:33:23;2.27;;;2.07;;
7539;SDS011;3811;49.006;12.076;2023-04-16T13:35:50;2.17;;;2.07;;
7539;SDS011;3811;49.006;12.076;2023-04-16T13:38:17;1.93;;;1.83;;
7539;SDS011;3811;49.006;12.076;2023-04-16T13:40:45;4.47;;;1.80;;
7539;SDS011;3811;49.006;12.076;2023-04-16T13:43:12;2.10;;;2.00;;
7539;SDS011;3811;49.006;12.076;2023-04-16T13:45:44;1.57;;;1.53;;
7539;SDS011;3811;49.006;12.076;2023-04-16T13:48:11;1.47;;;1.37;;
7539;SDS011;3811;49.006;12.076;2023-04-16T13:50:38;2.17;;;1.97;;
7539;SDS011;3811;49.006;12.076;2023-04-16T13:53:06;2.20;;;2.10;;
7539;SDS011;3811;49.006;12.076;2023-04-16T13:55:33;2.70;;;2.43;;
7539;SDS011;3811;49.006;12.076;2023-04-16T13:58:00;10.00;;;8.47;;
7539;SDS011;3811;49.006;12.076;2023-04-16T14:00:29;5.07;;;4.67;;
7539;SDS011;3811;49.006;12.076;2023-04-16T14:02:57;10.60;;;8.17;;
7539;SDS011;3811;49.006;12.076;2023-04-16T14:05:25;18.07;;;12.00;;
7539;SDS011;3811;49.006;12.076;2023-04-16T14:07:53;12.27;;;8.00;;
7539;SDS011;3811;49.006;12.076;2023-04-16T14:10:20;2.80;;;2.60;;
7539;SDS011;3811;49.006;12.076;2023-04-16T14:12:47;2.03;;;1.93;;
7539;SDS011;3811;49.006;12.076;2023-04-16T14:15:14;2.00;;;1.90;;
7539;SDS011;3811;49.006;12.076;2023-04-16T14:17:42;2.07;;;1.87;;
7539;SDS011;3811;49.006;12.076;2023-04-16T14:20:12;1.43;;;1.33;;
7539;SDS011;3811;49.006;12.076;2023-04-16T14:22:39;1.50;;;1.40;;
7539;SDS011;3811;49.006;12.076;2023-04-16T14:25:08;1.73;;;1.30;;
7539;SDS011;3811;49.006;12.076;2023-04-16T14:27:35;1.30;;;1.30;;
7539;SDS011;3811;49.006;12.076;2023-04-16T14:30:02;1.60;;;1.50;;
7539;SDS011;3811;49.006;12.076;2023-04-16T14:32:30;1.40;;;1.40;;
7539;SDS011;3811;49.006;12.076;2023-04-16T14:34:58;1.60;;;1.50;;
7539;SDS011;3811;49.006;12.076;2023-04-16T14:37:26;1.67;;;1.57;;
7539;SDS011;3811;49.006;12.076;2023-04-16T14:39:53;1.90;;;1.80;;
7539;SDS011;3811;49.006;12.076;2023-04-16T14:42:23;2.03;;;1.90;;
7539;SDS011;3811;49.006;12.076;2023-04-16T14:44:51;2.00;;;1.90;;
7539;SDS011;3811;49.006;12.076;2023-04-16T14:47:18;2.20;;;2.07;;
7539;SDS011;3811;49.006;12.076;2023-04-16T14:49:45;1.63;;;1.53;;
7539;SDS011;3811;49.006;12.076;2023-04-16T14:52:12;1.93;;;1.83;;
7539;SDS011;3811;49.006;12.076;2023-04-16T14:54:41;2.00;;;1.90;;
7539;SDS011;3811;49.006;12.076;2023-04-16T14:57:08;1.97;;;1.87;;
7539;SDS011;3811;49.006;12.076;2023-04-16T14:59:36;1.73;;;1.63;;
7539;SDS011;3811;49.006;12.076;2023-04-16T15:02:04;2.00;;;1.90;;
7539;SDS011;3811;49.006;12.076;2023-04-16T15:04:31;1.50;;;1.50;;
7539;SDS011;3811;49.006;12.076;2023-04-16T15:06:59;1.50;;;1.50;;
7539;SDS011;3811;49.006;12.076;2023-04-16T15:09:26;1.30;;;1.20;;